createdAt,value
2022-07-25T00:03:45.068Z,15.43
2022-07-25T00:08:50.494Z,14.57
2022-07-25T00:13:55.911Z,13.90
2022-07-25T00:19:01.850Z,15.53
2022-07-25T00:24:07.777Z,18.77
2022-07-25T00:29:13.868Z,15.87
2022-07-25T00:34:19.224Z,15.77
2022-07-25T00:39:24.528Z,18.87
2022-07-25T00:44:33.077Z,18.77
2022-07-25T00:49:38.836Z,24.17
2022-07-25T00:54:45.125Z,13.47
2022-07-25T00:59:50.623Z,13.33
2022-07-25T01:04:57.672Z,13.50
2022-07-25T01:10:03.093Z,15.17
2022-07-25T01:15:09.773Z,20.37
2022-07-25T01:20:16.948Z,11.63
2022-07-25T01:25:23.731Z,13.27
2022-07-25T01:30:29.259Z,13.03
2022-07-25T01:35:34.698Z,14.43
2022-07-25T01:40:42.967Z,15.57
2022-07-25T01:45:48.903Z,8.93
2022-07-25T01:50:54.341Z,14.90
2022-07-25T01:56:01.049Z,15.33
2022-07-25T02:01:08.209Z,11.00
2022-07-25T02:06:13.774Z,11.17
2022-07-25T02:11:19.112Z,18.60
2022-07-25T02:16:28.849Z,11.90
2022-07-25T02:21:31.591Z,11.83
2022-07-25T02:26:37.054Z,14.67
2022-07-25T02:31:43.676Z,17.53
2022-07-25T02:36:48.986Z,14.97
2022-07-25T02:41:55.054Z,17.60
2022-07-25T02:47:00.830Z,9.50
2022-07-25T02:52:06.294Z,14.70
2022-07-25T02:57:11.735Z,12.73
2022-07-25T03:02:17.469Z,14.43
2022-07-25T03:07:23.005Z,13.80
2022-07-25T03:12:28.448Z,12.60
2022-07-25T03:17:33.909Z,14.57
2022-07-25T03:22:42.995Z,9.83
2022-07-25T03:27:48.434Z,11.23
2022-07-25T03:32:55.468Z,10.13
2022-07-25T03:38:00.934Z,12.00
2022-07-25T03:43:06.693Z,14.57
2022-07-25T03:48:12.729Z,14.10
2022-07-25T03:53:18.145Z,10.40
2022-07-25T03:58:23.481Z,23.80
2022-07-25T04:03:28.834Z,17.70
2022-07-25T04:08:34.238Z,13.97
2022-07-25T04:13:39.786Z,14.97
2022-07-25T04:18:45.271Z,15.03
2022-07-25T04:23:51.413Z,17.27
2022-07-25T04:28:58.417Z,18.90
2022-07-25T04:34:04.110Z,23.83
2022-07-25T04:39:10.063Z,21.10
2022-07-25T04:44:15.505Z,17.17
2022-07-25T04:49:21.379Z,27.53
2022-07-25T04:54:26.755Z,23.23
2022-07-25T04:59:32.396Z,16.40
2022-07-25T05:04:43.445Z,18.77
2022-07-25T05:09:46.172Z,16.83
2022-07-25T05:14:51.540Z,19.37
2022-07-25T05:19:58.391Z,18.13
2022-07-25T05:25:03.900Z,15.77
2022-07-25T05:30:12.635Z,13.73
2022-07-25T05:35:18.059Z,14.43
2022-07-25T05:40:23.420Z,11.63
2022-07-25T05:45:28.820Z,11.47
2022-07-25T05:50:34.544Z,13.80
2022-07-25T05:55:40.683Z,13.80
2022-07-25T06:00:46.673Z,9.43
2022-07-25T06:05:52.078Z,10.53
2022-07-25T06:10:59.396Z,5.37
2022-07-25T06:16:06.590Z,7.17
2022-07-25T06:21:12.065Z,5.80
2022-07-25T06:26:17.480Z,6.40
2022-07-25T06:31:22.973Z,5.10
2022-07-25T06:36:32.570Z,3.00
2022-07-25T06:41:37.398Z,5.37
2022-07-25T06:46:43.628Z,3.77
2022-07-25T06:51:49.423Z,4.47
2022-07-25T06:56:55.780Z,2.80
2022-07-25T07:02:01.316Z,3.27
2022-07-25T07:07:06.742Z,3.52
2022-07-25T07:12:12.771Z,4.85
2022-07-25T07:17:18.167Z,4.60
2022-07-25T07:22:23.560Z,3.02
2022-07-25T07:27:28.995Z,8.08
2022-07-25T07:32:34.455Z,3.25
2022-07-25T07:37:43.486Z,3.12
2022-07-25T07:42:49.190Z,2.98
2022-07-25T07:47:56.003Z,9.58
2022-07-25T07:53:01.936Z,4.50
2022-07-25T07:58:08.151Z,2.85
2022-07-25T08:03:14.096Z,4.60
2022-07-25T08:08:19.629Z,3.80
2022-07-25T08:13:30.782Z,2.52
2022-07-25T08:18:36.267Z,3.22
2022-07-25T08:23:41.699Z,5.80
2022-07-25T08:28:48.386Z,2.80
2022-07-25T08:33:54.691Z,2.67
2022-07-25T08:39:00.105Z,3.30
2022-07-25T08:44:06.069Z,2.08
2022-07-25T08:49:12.660Z,2.60
2022-07-25T08:54:19.410Z,2.83
2022-07-25T08:59:26.209Z,2.77
2022-07-25T09:04:33.307Z,2.17
2022-07-25T09:09:40.118Z,3.83
2022-07-25T09:14:47.976Z,4.60
2022-07-25T09:19:58.903Z,4.90
2022-07-25T09:25:04.351Z,4.95
2022-07-25T09:30:17.410Z,3.70
2022-07-25T09:35:25.664Z,2.00
2022-07-25T09:40:32.458Z,4.85
2022-07-25T09:45:39.482Z,1.87
2022-07-25T09:50:44.937Z,1.72
2022-07-25T09:55:52.765Z,2.05
2022-07-25T10:01:07.147Z,2.70
2022-07-25T10:06:19.961Z,2.72
2022-07-25T10:11:30.791Z,2.75
2022-07-25T10:16:39.106Z,5.22
2022-07-25T10:21:46.481Z,3.70
2022-07-25T10:27:12.106Z,2.47
2022-07-25T10:32:19.486Z,2.92
2022-07-25T10:37:32.231Z,1.62
2022-07-25T10:42:39.277Z,2.58
2022-07-25T10:47:47.617Z,3.08
2022-07-25T10:53:07.121Z,1.32
2022-07-25T10:58:18.439Z,1.85
2022-07-25T11:03:23.154Z,1.82
2022-07-25T11:08:36.171Z,1.15
2022-07-25T11:13:45.137Z,1.65
2022-07-25T11:18:51.705Z,1.42
2022-07-25T11:24:00.861Z,2.58
2022-07-25T11:29:09.551Z,1.50
2022-07-25T11:34:15.234Z,1.98
2022-07-25T11:39:20.877Z,1.70
2022-07-25T11:44:35.091Z,4.08
2022-07-25T11:49:52.612Z,1.95
2022-07-25T11:55:03.963Z,4.33
2022-07-25T12:00:22.698Z,2.12
2022-07-25T12:05:35.224Z,2.17
2022-07-25T12:10:42.053Z,4.92
2022-07-25T12:15:47.638Z,1.90
2022-07-25T12:20:53.952Z,2.05
2022-07-25T12:25:59.352Z,1.65
2022-07-25T12:31:07.104Z,1.25
2022-07-25T12:36:14.972Z,1.02
2022-07-25T12:41:21.882Z,1.75
2022-07-25T12:46:27.843Z,1.37
2022-07-25T12:51:34.302Z,1.80
2022-07-25T12:56:40.788Z,1.52
2022-07-25T13:01:46.326Z,1.60
2022-07-25T13:06:51.989Z,0.90
2022-07-25T13:11:59.157Z,2.40
2022-07-25T13:17:04.784Z,2.77
2022-07-25T13:22:15.146Z,2.30
2022-07-25T13:27:22.625Z,2.50
2022-07-25T13:32:28.869Z,1.15
2022-07-25T13:37:41.850Z,3.17
2022-07-25T13:42:47.275Z,1.10
2022-07-25T13:48:12.018Z,3.67
2022-07-25T13:53:00.947Z,1.20
2022-07-25T13:58:07.136Z,2.30
2022-07-25T14:03:12.759Z,5.50
2022-07-25T14:08:20.056Z,4.58
2022-07-25T14:13:28.106Z,1.50
2022-07-25T14:18:33.566Z,1.37
2022-07-25T14:23:39.013Z,1.75
2022-07-25T14:28:45.344Z,1.52
2022-07-25T14:33:52.917Z,3.02
2022-07-25T14:38:58.518Z,3.17
2022-07-25T14:44:04.764Z,3.12
2022-07-25T14:49:15.393Z,8.88
2022-07-25T14:54:21.819Z,6.95
2022-07-25T14:59:28.456Z,3.35
2022-07-25T15:04:34.195Z,4.50
2022-07-25T15:09:39.720Z,3.98
2022-07-25T15:14:45.028Z,3.25
2022-07-25T15:19:50.816Z,12.37
2022-07-25T15:30:03.445Z,1.55
2022-07-25T15:35:10.010Z,1.60
2022-07-25T15:40:15.474Z,1.87
2022-07-25T15:45:37.750Z,3.75
2022-07-25T15:50:30.014Z,2.37
2022-07-25T15:55:39.124Z,4.05
2022-07-25T16:00:44.848Z,1.75
2022-07-25T16:05:50.385Z,4.30
2022-07-25T16:10:55.806Z,2.60
2022-07-25T16:16:01.224Z,5.42
2022-07-25T16:21:07.130Z,2.22
2022-07-25T16:26:14.933Z,3.42
2022-07-25T16:31:20.450Z,3.83
2022-07-25T16:36:26.926Z,3.98
2022-07-25T16:41:33.723Z,5.75
2022-07-25T16:46:39.714Z,2.95
2022-07-25T16:51:45.814Z,5.85
2022-07-25T16:56:53.741Z,8.45
2022-07-25T17:01:58.465Z,3.58
2022-07-25T17:07:04.339Z,7.00
2022-07-25T17:12:09.763Z,1.60
2022-07-25T17:17:26.892Z,4.83
2022-07-25T17:22:33.716Z,2.85
2022-07-25T17:27:39.058Z,2.85
2022-07-25T17:32:47.614Z,5.37
2022-07-25T17:37:53.484Z,1.95
2022-07-25T17:42:58.831Z,5.65
2022-07-25T17:48:04.607Z,4.40
2022-07-25T17:53:10.035Z,2.85
2022-07-25T17:58:17.204Z,2.10
2022-07-25T18:03:24.006Z,2.70
2022-07-25T18:08:49.896Z,5.10
2022-07-25T18:13:59.196Z,11.68
2022-07-25T18:19:05.412Z,31.35
2022-07-25T18:24:11.218Z,17.12
2022-07-25T18:29:17.739Z,15.70
2022-07-25T18:34:23.070Z,8.03
2022-07-25T18:39:28.553Z,5.62
2022-07-25T18:44:35.351Z,7.53
2022-07-25T18:49:40.815Z,7.67
2022-07-25T18:54:46.186Z,7.55
2022-07-25T18:59:51.888Z,12.00
2022-07-25T19:04:57.306Z,6.45
2022-07-25T19:10:04.062Z,7.45
2022-07-25T19:15:09.947Z,10.50
2022-07-25T19:20:16.111Z,6.95
2022-07-25T19:25:21.731Z,11.85
2022-07-25T19:30:30.267Z,8.50
2022-07-25T19:35:37.083Z,4.70
2022-07-25T19:40:43.407Z,9.90
2022-07-25T19:45:49.856Z,9.70
2022-07-25T19:50:55.295Z,9.83
2022-07-25T19:56:01.622Z,9.10
2022-07-25T20:01:07.092Z,8.38
2022-07-25T20:06:12.815Z,9.40
2022-07-25T20:11:18.224Z,6.53
2022-07-25T20:16:24.129Z,9.33
2022-07-25T20:21:30.647Z,5.58
2022-07-25T20:26:36.165Z,8.13
2022-07-25T20:31:42.821Z,8.03
2022-07-25T20:36:48.666Z,6.03
2022-07-25T20:41:54.675Z,10.53
2022-07-25T20:47:00.093Z,7.92
2022-07-25T20:52:05.732Z,10.98
2022-07-25T20:57:12.014Z,5.17
2022-07-25T21:02:17.732Z,6.22
2022-07-25T21:07:23.236Z,5.25
2022-07-25T21:12:32.425Z,3.90
2022-07-25T21:17:36.196Z,4.50
2022-07-25T21:22:41.723Z,5.90
2022-07-25T21:27:48.463Z,4.83
2022-07-25T21:32:53.796Z,6.87
2022-07-25T21:37:59.456Z,5.20
2022-07-25T21:43:04.757Z,5.60
2022-07-25T21:48:11.777Z,4.17
2022-07-25T21:53:17.927Z,6.60
2022-07-25T21:58:23.451Z,3.73
2022-07-25T22:03:28.996Z,7.08
2022-07-25T22:08:34.561Z,4.97
2022-07-25T22:13:43.164Z,6.15
2022-07-25T22:18:47.585Z,5.73
2022-07-25T22:23:57.802Z,4.17
2022-07-25T22:29:03.395Z,4.55
2022-07-25T22:34:09.987Z,6.37
2022-07-25T22:39:17.167Z,5.28
2022-07-25T22:44:22.781Z,5.37
2022-07-25T22:49:30.331Z,5.37
2022-07-25T22:54:37.966Z,8.65
2022-07-25T22:59:43.554Z,4.33
2022-07-25T23:04:49.186Z,7.23
2022-07-25T23:09:54.748Z,6.50
2022-07-25T23:15:00.629Z,4.97
2022-07-25T23:20:08.061Z,3.35
2022-07-25T23:25:13.736Z,4.13
2022-07-25T23:30:19.223Z,4.95
2022-07-25T23:35:24.770Z,5.13
2022-07-25T23:40:30.952Z,4.50
2022-07-25T23:45:51.371Z,7.37
2022-07-25T23:50:57.364Z,3.23
2022-07-25T23:56:02.937Z,3.58
